createdAt,value
2018-07-23T04:28:03.477Z,99.80
2018-07-23T04:30:31.755Z,99.70
2018-07-23T04:33:00.000Z,99.80
2018-07-23T04:35:28.224Z,99.80
2018-07-23T04:37:56.469Z,99.70
2018-07-23T04:40:24.691Z,99.70
2018-07-23T04:42:52.965Z,99.80
2018-07-23T04:45:21.180Z,99.80
2018-07-23T04:47:49.402Z,99.70
2018-07-23T04:50:17.632Z,99.80
2018-07-23T04:52:45.849Z,99.90
2018-07-23T04:55:14.088Z,99.70
2018-07-23T04:57:42.300Z,99.90
2018-07-23T05:00:10.531Z,99.90
2018-07-23T05:02:38.739Z,99.50
2018-07-23T05:05:06.974Z,98.50
2018-07-23T05:07:35.188Z,97.70
2018-07-23T05:10:03.439Z,97.20
2018-07-23T05:12:31.656Z,96.40
2018-07-23T05:14:59.883Z,96.50
2018-07-23T05:17:28.099Z,96.60
2018-07-23T05:19:56.343Z,96.70
2018-07-23T05:22:24.558Z,96.40
2018-07-23T05:24:52.796Z,96.60
2018-07-23T05:27:21.016Z,96.20
2018-07-23T05:29:49.288Z,96.30
2018-07-23T05:32:17.529Z,96.10
2018-07-23T05:34:45.805Z,96.00
2018-07-23T05:37:14.025Z,95.80
2018-07-23T05:39:42.257Z,95.70
2018-07-23T05:42:10.471Z,96.00
2018-07-23T05:44:38.699Z,95.70
2018-07-23T05:47:06.911Z,95.90
2018-07-23T05:49:35.162Z,95.80
2018-07-23T05:52:03.381Z,95.60
2018-07-23T05:54:31.618Z,95.30
2018-07-23T05:56:59.832Z,94.70
2018-07-23T05:59:28.064Z,94.80
2018-07-23T06:01:56.292Z,95.30
2018-07-23T06:04:24.539Z,95.20
2018-07-23T06:06:52.851Z,94.40
2018-07-23T06:09:21.028Z,94.10
2018-07-23T06:11:49.261Z,93.70
2018-07-23T06:14:17.499Z,93.60
2018-07-23T06:16:45.703Z,93.20
2018-07-23T06:19:13.961Z,93.60
2018-07-23T06:21:42.184Z,94.70
2018-07-23T06:24:10.420Z,93.00
2018-07-23T06:26:38.628Z,92.90
2018-07-23T06:29:06.872Z,92.80
2018-07-23T06:31:35.093Z,92.70
2018-07-23T06:34:03.331Z,92.20
2018-07-23T06:36:31.573Z,91.60
2018-07-23T06:38:59.788Z,91.10
2018-07-23T06:41:28.025Z,91.70
2018-07-23T06:43:56.236Z,90.30
2018-07-23T06:46:24.463Z,90.20
2018-07-23T06:48:52.684Z,90.80
2018-07-23T06:51:20.916Z,89.10
2018-07-23T06:53:49.131Z,89.90
2018-07-23T06:56:17.365Z,87.50
2018-07-23T06:58:45.579Z,88.00
2018-07-23T07:01:13.822Z,86.60
2018-07-23T07:03:42.037Z,85.80
2018-07-23T07:06:10.270Z,84.90
2018-07-23T07:08:38.708Z,83.10
2018-07-23T07:11:06.956Z,82.20
2018-07-23T07:13:35.298Z,79.30
2018-07-23T07:16:03.535Z,79.00
2018-07-23T07:18:31.893Z,78.70
2018-07-23T07:21:00.178Z,78.60
2018-07-23T07:23:28.404Z,79.90
2018-07-23T07:25:56.631Z,76.00
2018-07-23T07:28:24.844Z,75.30
2018-07-23T07:30:53.071Z,76.50
2018-07-23T07:33:21.275Z,74.90
2018-07-23T07:35:49.616Z,74.40
2018-07-23T07:38:17.792Z,75.70
2018-07-23T07:40:46.024Z,73.30
2018-07-23T07:43:14.244Z,69.30
2018-07-23T07:45:42.468Z,69.90
2018-07-23T07:48:10.667Z,70.80
2018-07-23T07:50:38.899Z,68.00
2018-07-23T07:53:07.124Z,68.70
2018-07-23T07:55:35.357Z,70.90
2018-07-23T07:58:03.574Z,71.00
2018-07-23T08:00:31.801Z,70.30
2018-07-23T08:03:00.020Z,69.60
2018-07-23T08:05:28.272Z,67.60
2018-07-23T08:07:56.479Z,67.80
2018-07-23T08:10:24.710Z,63.10
2018-07-23T08:12:52.921Z,69.30
2018-07-23T08:15:21.156Z,64.50
2018-07-23T08:17:49.381Z,62.90
2018-07-23T08:20:17.637Z,62.40
2018-07-23T08:22:45.844Z,64.00
2018-07-23T08:25:14.171Z,61.20
2018-07-23T08:27:42.339Z,62.50
2018-07-23T08:30:10.557Z,60.30
2018-07-23T08:32:38.792Z,62.40
2018-07-23T08:35:07.001Z,62.00
2018-07-23T08:37:35.236Z,60.30
2018-07-23T08:40:03.448Z,62.50
2018-07-23T08:42:31.667Z,63.90
2018-07-23T08:44:59.924Z,61.40
2018-07-23T08:47:28.117Z,63.40
2018-07-23T08:49:56.324Z,61.80
2018-07-23T08:52:24.560Z,61.10
2018-07-23T08:54:52.766Z,60.40
2018-07-23T08:57:21.019Z,60.50
2018-07-23T08:59:49.208Z,58.10
2018-07-23T09:02:17.472Z,56.80
2018-07-23T09:04:45.660Z,59.30
2018-07-23T09:07:13.883Z,57.20
2018-07-23T09:09:42.092Z,54.50
2018-07-23T09:12:10.664Z,54.30
2018-07-23T09:14:38.859Z,53.60
2018-07-23T09:17:07.073Z,53.60
2018-07-23T09:19:35.621Z,54.90
2018-07-23T09:22:03.863Z,58.50
2018-07-23T09:24:32.074Z,53.00
2018-07-23T09:27:00.329Z,55.20
2018-07-23T09:29:28.544Z,53.30
2018-07-23T09:31:56.767Z,53.50
2018-07-23T09:34:24.972Z,49.80
2018-07-23T09:36:53.204Z,50.10
2018-07-23T09:39:21.403Z,51.90
2018-07-23T09:41:49.621Z,53.50
2018-07-23T09:44:17.830Z,50.40
2018-07-23T09:46:46.048Z,52.50
2018-07-23T09:49:14.251Z,48.40
2018-07-23T09:51:42.476Z,51.50
2018-07-23T09:54:10.696Z,49.70
2018-07-23T09:56:38.924Z,49.00
2018-07-23T09:59:07.140Z,51.20
2018-07-23T10:01:35.364Z,46.10
2018-07-23T10:04:03.572Z,48.60
2018-07-23T10:06:31.808Z,49.70
2018-07-23T10:09:00.026Z,44.80
2018-07-23T10:11:28.272Z,41.10
2018-07-23T10:13:56.492Z,44.90
2018-07-23T10:16:24.720Z,41.60
2018-07-23T10:18:52.971Z,43.60
2018-07-23T10:21:21.187Z,44.50
2018-07-23T10:23:49.456Z,44.30
2018-07-23T10:26:17.667Z,46.10
2018-07-23T10:28:45.895Z,46.00
2018-07-23T10:31:14.096Z,44.30
2018-07-23T10:33:42.323Z,43.40
2018-07-23T10:36:10.528Z,42.50
2018-07-23T10:38:38.776Z,47.90
2018-07-23T10:41:07.000Z,45.70
2018-07-23T10:43:35.247Z,44.40
2018-07-23T10:46:03.452Z,45.70
2018-07-23T10:48:31.684Z,44.30
2018-07-23T10:50:59.977Z,43.60
2018-07-23T10:53:28.343Z,44.30
2018-07-23T10:55:56.560Z,44.20
2018-07-23T10:58:24.834Z,39.80
2018-07-23T11:00:53.036Z,40.20
2018-07-23T11:03:21.271Z,39.30
2018-07-23T11:05:49.500Z,38.60
2018-07-23T11:08:17.739Z,39.40
2018-07-23T11:10:45.955Z,40.00
2018-07-23T11:13:14.189Z,37.40
2018-07-23T11:15:42.432Z,37.30
2018-07-23T11:18:10.672Z,37.30
2018-07-23T11:20:38.882Z,37.80
2018-07-23T11:23:07.120Z,38.60
2018-07-23T11:25:39.450Z,34.80
2018-07-23T11:28:03.595Z,36.10
2018-07-23T11:30:31.808Z,39.30
2018-07-23T11:33:00.040Z,38.30
2018-07-23T11:35:28.243Z,37.80
2018-07-23T11:37:56.523Z,38.40
2018-07-23T11:40:24.740Z,41.60
2018-07-23T11:42:52.975Z,38.30
2018-07-23T11:45:21.263Z,40.50
2018-07-23T11:47:49.439Z,39.50
2018-07-23T11:50:17.652Z,39.30
2018-07-23T11:52:45.884Z,41.20
2018-07-23T11:55:14.110Z,40.80
2018-07-23T11:57:42.340Z,36.80
2018-07-23T12:00:10.543Z,39.10
2018-07-23T12:02:38.764Z,41.30
2018-07-23T12:05:07.080Z,41.20
2018-07-23T12:07:35.314Z,40.90
2018-07-23T12:10:03.588Z,40.80
2018-07-23T12:12:31.819Z,39.70
2018-07-23T12:15:00.096Z,38.70
2018-07-23T12:17:28.354Z,40.00
2018-07-23T12:19:56.608Z,43.00
2018-07-23T12:22:24.845Z,39.20
2018-07-23T12:24:53.108Z,40.90
2018-07-23T12:27:21.320Z,40.50
2018-07-23T12:29:49.535Z,39.30
2018-07-23T12:32:17.731Z,40.50
2018-07-23T12:34:45.955Z,39.30
2018-07-23T12:37:14.168Z,38.70
2018-07-23T12:39:42.415Z,41.20
2018-07-23T12:42:10.646Z,39.90
2018-07-23T12:44:38.872Z,40.30
2018-07-23T12:47:07.115Z,40.50
2018-07-23T12:49:35.323Z,39.30
2018-07-23T12:52:03.537Z,40.60
2018-07-23T12:54:31.776Z,38.50
2018-07-23T12:56:59.980Z,37.80
2018-07-23T12:59:28.209Z,36.70
2018-07-23T13:01:56.441Z,37.30
2018-07-23T13:04:24.679Z,36.80
2018-07-23T13:06:52.896Z,34.60
2018-07-23T13:09:21.127Z,36.00
2018-07-23T13:11:49.340Z,38.70
2018-07-23T13:14:17.575Z,38.60
2018-07-23T13:16:45.790Z,38.70
2018-07-23T13:19:14.159Z,37.40
2018-07-23T13:21:42.260Z,34.50
2018-07-23T13:24:10.479Z,40.30
2018-07-23T13:26:38.692Z,39.30
2018-07-23T13:29:06.924Z,34.60
2018-07-23T13:31:35.142Z,36.50
2018-07-23T13:34:03.372Z,37.20
2018-07-23T13:36:31.579Z,37.80
2018-07-23T13:38:59.790Z,35.70
2018-07-23T13:41:28.000Z,39.10
2018-07-23T13:43:56.216Z,35.30
2018-07-23T13:46:24.522Z,35.60
2018-07-23T13:48:52.695Z,36.10
2018-07-23T13:51:20.912Z,35.10
2018-07-23T13:53:49.134Z,36.80
2018-07-23T13:56:23.764Z,35.20
2018-07-23T13:58:51.996Z,37.80
2018-07-23T14:01:20.261Z,36.20
2018-07-23T14:03:48.468Z,36.20
2018-07-23T14:06:16.697Z,37.90
2018-07-23T14:08:44.922Z,37.00
2018-07-23T14:11:13.147Z,37.50
2018-07-23T14:13:41.359Z,37.90
2018-07-23T14:16:09.591Z,37.70
2018-07-23T14:18:37.829Z,36.60
2018-07-23T14:21:06.100Z,37.30
2018-07-23T14:23:34.372Z,39.70
2018-07-23T14:26:02.650Z,38.70
2018-07-23T14:28:30.896Z,38.00
2018-07-23T14:30:59.136Z,37.40
2018-07-23T14:33:27.402Z,38.90
2018-07-23T14:35:55.624Z,39.30
2018-07-23T14:38:23.840Z,38.70
2018-07-23T14:40:52.088Z,36.90
2018-07-23T14:43:20.330Z,40.80
2018-07-23T14:45:49.025Z,38.00
2018-07-23T14:48:17.260Z,38.10
2018-07-23T14:50:45.527Z,40.60
2018-07-23T14:53:13.739Z,37.70
2018-07-23T14:55:41.999Z,38.00
2018-07-23T14:58:10.225Z,38.50
2018-07-23T15:00:38.466Z,41.40
2018-07-23T15:03:07.516Z,42.30
2018-07-23T15:05:35.760Z,41.40
2018-07-23T15:08:03.995Z,41.10
2018-07-23T15:10:32.271Z,38.70
2018-07-23T15:13:00.485Z,42.30
2018-07-23T15:15:28.727Z,40.40
2018-07-23T15:17:56.944Z,40.40
2018-07-23T15:20:25.191Z,39.50
2018-07-23T15:22:53.443Z,40.90
2018-07-23T15:25:21.671Z,41.30
2018-07-23T15:27:49.907Z,42.00
2018-07-23T15:30:18.143Z,41.40
2018-07-23T15:32:46.408Z,41.60
2018-07-23T15:35:14.656Z,41.40
2018-07-23T15:37:42.908Z,42.00
2018-07-23T15:40:11.147Z,43.10
2018-07-23T15:42:39.411Z,41.80
2018-07-23T15:45:07.654Z,44.90
2018-07-23T15:47:35.873Z,40.80
2018-07-23T15:50:04.161Z,43.30
2018-07-23T15:52:32.496Z,43.00
2018-07-23T15:55:00.731Z,43.50
2018-07-23T15:57:28.949Z,45.50
2018-07-23T15:59:57.155Z,43.90
2018-07-23T16:02:25.384Z,42.00
2018-07-23T16:04:53.618Z,43.50
2018-07-23T16:07:21.854Z,43.40
2018-07-23T16:09:50.072Z,42.20
2018-07-23T16:12:18.286Z,43.30
2018-07-23T16:14:46.497Z,42.20
2018-07-23T16:17:14.732Z,44.50
2018-07-23T16:19:42.972Z,42.90
2018-07-23T16:22:11.192Z,43.60
2018-07-23T16:24:39.391Z,44.60
2018-07-23T16:27:07.690Z,43.90
2018-07-23T16:29:35.895Z,44.70
2018-07-23T16:32:04.138Z,42.90
2018-07-23T16:34:32.376Z,42.40
2018-07-23T16:37:00.647Z,43.30
2018-07-23T16:39:28.853Z,42.90
2018-07-23T16:41:57.088Z,42.40
2018-07-23T16:44:25.305Z,42.30
2018-07-23T16:46:53.624Z,41.50
2018-07-23T16:49:21.822Z,45.00
2018-07-23T16:51:50.048Z,42.90
2018-07-23T16:54:18.251Z,44.90
2018-07-23T16:56:46.484Z,46.00
2018-07-23T16:59:14.692Z,46.50
2018-07-23T17:01:42.911Z,47.00
2018-07-23T17:04:11.116Z,47.10
2018-07-23T17:06:39.346Z,49.00
2018-07-23T17:09:09.207Z,47.50
2018-07-23T17:11:37.439Z,48.50
2018-07-23T17:14:05.753Z,49.10
2018-07-23T17:16:33.975Z,50.60
2018-07-23T17:19:02.205Z,49.60
2018-07-23T17:21:30.428Z,49.90
2018-07-23T17:23:58.636Z,49.80
2018-07-23T17:26:26.887Z,51.00
2018-07-23T17:28:55.097Z,50.80
2018-07-23T17:31:23.334Z,50.90
2018-07-23T17:33:51.551Z,51.10
2018-07-23T17:36:19.780Z,51.40
2018-07-23T17:38:48.037Z,54.40
2018-07-23T17:41:16.256Z,54.50
2018-07-23T17:43:44.450Z,54.40
2018-07-23T17:46:12.667Z,55.60
2018-07-23T17:48:40.880Z,55.60
2018-07-23T17:51:09.113Z,53.80
2018-07-23T17:53:37.379Z,54.30
2018-07-23T17:56:05.693Z,55.40
2018-07-23T17:58:33.944Z,55.20
2018-07-23T18:01:02.147Z,57.20
2018-07-23T18:03:30.380Z,55.60
2018-07-23T18:05:58.603Z,57.50
2018-07-23T18:08:26.818Z,57.90
2018-07-23T18:10:55.037Z,57.30
2018-07-23T18:13:23.267Z,58.90
2018-07-23T18:15:51.475Z,59.40
2018-07-23T18:18:19.720Z,59.50
2018-07-23T18:20:47.940Z,61.70
2018-07-23T18:23:16.167Z,60.40
2018-07-23T18:25:44.384Z,64.30
2018-07-23T18:28:12.612Z,61.80
2018-07-23T18:30:40.824Z,63.40
2018-07-23T18:33:09.052Z,64.10
2018-07-23T18:35:37.272Z,66.60
2018-07-23T18:38:05.624Z,68.20
2018-07-23T18:40:33.782Z,68.90
2018-07-23T18:43:02.004Z,69.50
2018-07-23T18:45:30.212Z,72.50
2018-07-23T18:47:58.430Z,74.40
2018-07-23T18:50:26.640Z,75.10
2018-07-23T18:52:54.864Z,75.20
2018-07-23T18:55:23.078Z,76.10
2018-07-23T18:57:51.302Z,78.20
2018-07-23T19:00:19.516Z,80.10
2018-07-23T19:02:47.759Z,81.30
2018-07-23T19:05:15.970Z,81.60
2018-07-23T19:07:44.202Z,81.60
2018-07-23T19:10:12.424Z,82.10
2018-07-23T19:12:40.648Z,82.70
2018-07-23T19:15:08.865Z,82.60
2018-07-23T19:17:37.120Z,84.60
2018-07-23T19:20:05.362Z,83.20
2018-07-23T19:22:33.604Z,84.70
2018-07-23T19:25:01.808Z,84.10
2018-07-23T19:27:30.033Z,84.70
2018-07-23T19:29:58.239Z,86.60
2018-07-23T19:32:26.471Z,87.90
2018-07-23T19:34:54.674Z,89.20
2018-07-23T19:37:22.895Z,88.80
2018-07-23T19:39:51.099Z,87.60
2018-07-23T19:42:19.346Z,88.40
2018-07-23T19:44:47.562Z,87.00
2018-07-23T19:47:15.760Z,87.30
2018-07-23T19:49:43.990Z,90.10
2018-07-23T19:52:12.208Z,90.70
2018-07-23T19:54:40.432Z,90.70
2018-07-23T19:57:08.740Z,91.30
2018-07-23T19:59:36.964Z,91.30
2018-07-23T20:02:05.340Z,91.00
2018-07-23T20:04:33.567Z,91.40
2018-07-23T20:07:01.775Z,91.80
2018-07-23T20:09:29.996Z,91.70
2018-07-23T20:11:58.212Z,91.50
2018-07-23T20:14:26.447Z,92.30
2018-07-23T20:16:54.661Z,92.50
2018-07-23T20:19:22.947Z,92.60
2018-07-23T20:21:51.147Z,92.80
2018-07-23T20:24:19.386Z,92.90
2018-07-23T20:26:47.591Z,92.80
